Time;durP1;ratioP1;P1;durP2;ratioP2;P2;SDS_P1;SDS_P2;PMS_P1;PMS_P2;Temp;Humidity;BMP_temperature;BMP_pressure;BME280_temperature;BME280_humidity;BME280_pressure;Samples;Min_cycle;Max_cycle;Signal;HPM_P1;HPM_P2
2022/04/01 04:27:15;;;;;;;;;;;;;;;8.35;100.00;95870.75;5826419;24;19960;31
2022/04/01 04:29:50;;;;;;;;;;;;;;;8.35;100.00;95878.31;4756905;30;19966;-67
2022/04/01 04:33:01;;;;;;;;;;;;;;;8.38;100.00;95881.00;4771843;30;19953;-67
2022/04/01 04:35:29;;;;;;;;;;;;;;;8.38;100.00;95878.22;4758122;30;19958;-67
2022/04/01 04:37:58;;;;;;;;;;;;;;;8.37;100.00;95884.22;4757857;30;19958;-67
2022/04/01 04:40:26;;;;;;;;;;;;;;;8.38;100.00;95886.59;4758431;30;19963;-67
2022/04/01 04:43:10;;;;;;;;;;;;;;;8.41;100.00;95894.03;4758540;30;20348;-67
2022/04/01 04:45:38;;;;;;;;;;;;;;;8.41;100.00;95890.50;4758751;30;19953;-67
2022/04/01 04:48:06;;;;;;;;;;;;;;;8.44;100.00;95889.59;4758447;30;19949;-67
2022/04/01 04:50:34;;;;;;;;;;;;;;;8.49;100.00;95898.19;4757691;30;19980;-67
2022/04/01 04:53:02;;;;;;;;;;;;;;;8.50;100.00;95894.19;4758363;30;20347;-67
2022/04/01 04:55:32;;;;;;;;;;;;;;;8.53;100.00;95903.66;4760623;30;20256;-67
2022/04/01 04:58:07;;;;;;;;;;;;;;;8.52;100.00;95907.66;4773206;30;20258;-67
2022/04/01 05:00:35;;;;;;;;;;;;;;;8.51;100.00;95901.31;4758867;30;19951;-67
2022/04/01 05:03:34;;;;;;;;;;;;;;;8.47;100.00;95900.63;4769494;30;19982;-67
2022/04/01 05:06:06;;;;;;;;;;;;;;;8.49;100.00;95906.53;4747902;30;19959;-67
2022/04/01 05:09:10;;;;;;;;;;;;;;;8.58;100.00;95901.09;4774272;30;20335;-67
2022/04/01 05:11:56;;;;;;;;;;;;;;;8.63;100.00;95905.34;4772985;30;20004;-67
2022/04/01 05:14:41;;;;;;;;;;;;;;;8.63;100.00;95896.22;4757659;30;19955;-67
2022/04/01 05:17:14;;;;;;;;;;;;;;;8.66;100.00;95903.66;4773837;30;20224;-67
2022/04/01 05:19:49;;;;;;;;;;;;;;;8.64;100.00;95904.13;4758223;30;19954;-67
2022/04/01 05:22:20;;;;;;;;;;;;;;;8.65;100.00;95904.91;4773923;30;19971;-67
2022/04/01 05:24:55;;;;;;;;;;;;;;;8.59;100.00;95911.03;4757705;30;19960;-68
2022/04/01 05:27:24;;;;;;;;;;;;;;;8.58;100.00;95917.03;4758043;30;19983;-68
2022/04/01 05:30:18;;;;;;;;;;;;;;;8.59;100.00;95921.38;4774192;30;19951;-68
2022/04/01 05:33:02;;;;;;;;;;;;;;;8.50;100.00;95933.19;4758331;30;19954;-68
2022/04/01 05:35:32;;;;;;;;;;;;;;;8.45;100.00;95922.56;4773762;30;20254;-68
2022/04/01 05:37:59;;;;;;;;;;;;;;;8.43;100.00;95930.59;4758138;30;19961;-68
2022/04/01 05:40:28;;;;;;;;;;;;;;;8.46;100.00;95926.16;4758925;30;19952;-68
2022/04/01 05:42:57;;;;;;;;;;;;;;;8.47;100.00;95931.25;4757442;30;19957;-68
2022/04/01 05:45:34;;;;;;;;;;;;;;;8.52;100.00;95922.38;4773406;30;19976;-68
2022/04/01 05:48:08;;;;;;;;;;;;;;;8.54;100.00;95922.69;4754741;30;19955;-68
2022/04/01 05:50:36;;;;;;;;;;;;;;;8.55;100.00;95929.06;4754996;30;20225;-68
2022/04/01 05:53:04;;;;;;;;;;;;;;;8.58;100.00;95925.41;4755691;30;19954;-68
2022/04/01 05:55:42;;;;;;;;;;;;;;;8.66;100.00;95923.16;4739849;30;19963;-67
2022/04/01 05:58:10;;;;;;;;;;;;;;;8.76;100.00;95927.63;4742858;30;19963;-68
2022/04/01 06:01:04;;;;;;;;;;;;;;;8.79;100.00;95933.13;4754796;30;20255;-67
2022/04/01 06:03:43;;;;;;;;;;;;;;;8.86;100.00;95937.69;4741342;30;19951;-67
2022/04/01 06:06:36;;;;;;;;;;;;;;;8.89;100.00;95928.44;4769111;30;19951;-67
2022/04/01 06:09:14;;;;;;;;;;;;;;;8.83;100.00;95927.44;4750633;30;19961;-67
2022/04/01 06:12:00;;;;;;;;;;;;;;;8.83;100.00;95930.22;4755834;30;19982;-67
2022/04/01 06:15:11;;;;;;;;;;;;;;;8.90;100.00;95928.00;4739594;30;19954;-67
2022/04/01 06:18:04;;;;;;;;;;;;;;;8.95;100.00;95933.03;4759197;30;19984;-67
2022/04/01 06:20:32;;;;;;;;;;;;;;;8.99;100.00;95941.28;4767931;30;19953;-67
2022/04/01 06:23:05;;;;;;;;;;;;;;;9.01;100.00;95933.25;4766973;30;19958;-67
2022/04/01 06:25:39;;;;;;;;;;;;;;;9.08;100.00;95933.03;4764401;30;19953;-67
2022/04/01 06:28:09;;;;;;;;;;;;;;;9.08;100.00;95935.81;4773177;30;20262;-67
2022/04/01 06:30:38;;;;;;;;;;;;;;;9.14;100.00;95948.00;4774172;30;19955;-68
2022/04/01 06:33:08;;;;;;;;;;;;;;;9.18;100.00;95945.88;4772458;30;19980;-68
2022/04/01 06:36:00;;;;;;;;;;;;;;;9.14;100.00;95945.19;4769862;30;20258;-67
2022/04/01 06:38:30;;;;;;;;;;;;;;;9.07;100.00;95945.44;4758209;30;19958;-68
2022/04/01 06:41:05;;;;;;;;;;;;;;;9.06;100.00;95941.84;4772715;30;19962;-67
2022/04/01 06:43:40;;;;;;;;;;;;;;;9.06;100.00;95938.28;4772684;30;19987;-68
2022/04/01 06:46:28;;;;;;;;;;;;;;;9.02;100.00;95930.00;4784556;30;20277;-67
2022/04/01 06:48:58;;;;;;;;;;;;;;;8.96;100.00;95931.81;4791213;30;20336;-67
2022/04/01 06:51:45;;;;;;;;;;;;;;;9.00;100.00;95931.69;4775328;30;19970;-67
2022/04/01 06:54:31;;;;;;;;;;;;;;;9.00;100.00;95953.97;4773702;30;19959;-67
2022/04/01 06:57:17;;;;;;;;;;;;;;;9.01;100.00;95950.78;4772474;30;19953;-67
2022/04/01 07:00:23;;;;;;;;;;;;;;;9.09;100.00;95946.53;4766834;30;19954;-67
2022/04/01 07:02:51;;;;;;;;;;;;;;;9.14;100.00;95956.34;4773451;30;20277;-67
2022/04/01 07:05:19;;;;;;;;;;;;;;;9.20;100.00;95955.34;4773618;30;19957;-67
2022/04/01 07:07:46;;;;;;;;;;;;;;;9.24;100.00;95956.00;4757063;30;19955;-68
2022/04/01 07:10:14;;;;;;;;;;;;;;;9.35;100.00;95955.69;4772901;30;20369;-67
2022/04/01 07:12:41;;;;;;;;;;;;;;;9.46;100.00;95958.16;4773475;30;20407;-68
2022/04/01 07:15:10;;;;;;;;;;;;;;;9.51;100.00;95957.59;4771430;30;19954;-68
2022/04/01 07:17:38;;;;;;;;;;;;;;;9.45;100.00;95957.34;4773057;30;19966;-68
2022/04/01 07:20:08;;;;;;;;;;;;;;;9.58;100.00;95966.50;4773091;30;19953;-68
2022/04/01 07:22:41;;;;;;;;;;;;;;;9.66;100.00;95970.59;4773199;30;19959;-68
2022/04/01 07:25:12;;;;;;;;;;;;;;;9.76;100.00;95958.31;4773074;30;19961;-67
2022/04/01 07:27:39;;;;;;;;;;;;;;;9.83;100.00;95952.50;4771917;30;20360;-68
2022/04/01 07:30:10;;;;;;;;;;;;;;;9.90;100.00;95955.06;4773166;30;19968;-68
2022/04/01 07:32:37;;;;;;;;;;;;;;;9.95;100.00;95961.31;4771653;30;19975;-68
2022/04/01 07:35:07;;;;;;;;;;;;;;;9.95;100.00;95948.13;4772636;30;20508;-67
2022/04/01 07:37:34;;;;;;;;;;;;;;;10.01;100.00;95951.91;4771901;30;19955;-68
2022/04/01 07:40:18;;;;;;;;;;;;;;;10.07;100.00;95963.28;4771527;30;19969;-68
2022/04/01 07:42:46;;;;;;;;;;;;;;;10.09;100.00;95966.41;4770214;30;20360;-68
2022/04/01 07:45:13;;;;;;;;;;;;;;;10.19;100.00;95973.66;4772131;30;19958;-68
2022/04/01 07:47:44;;;;;;;;;;;;;;;10.27;100.00;95969.41;4772194;30;19960;-68
2022/04/01 07:50:13;;;;;;;;;;;;;;;10.35;100.00;95974.28;4768158;30;19960;-69
2022/04/01 07:52:43;;;;;;;;;;;;;;;10.46;100.00;95966.31;4771418;30;20000;-68
2022/04/01 07:55:13;;;;;;;;;;;;;;;10.44;100.00;95962.41;4768674;30;20420;-70
2022/04/01 07:57:41;;;;;;;;;;;;;;;10.50;100.00;95960.59;4770665;30;20259;-70
2022/04/01 08:00:12;;;;;;;;;;;;;;;10.58;100.00;95953.50;4770634;30;19963;-69
2022/04/01 08:02:40;;;;;;;;;;;;;;;10.66;100.00;95965.22;4771580;30;19959;-70
2022/04/01 08:05:08;;;;;;;;;;;;;;;10.70;100.00;95969.44;4772379;30;19960;-70
2022/04/01 08:07:35;;;;;;;;;;;;;;;10.81;100.00;95977.44;4772341;30;19958;-70
2022/04/01 08:10:04;;;;;;;;;;;;;;;10.86;100.00;95983.19;4772392;30;20382;-70
2022/04/01 08:12:36;;;;;;;;;;;;;;;10.91;100.00;95987.41;4771402;30;19970;-70
2022/04/01 08:15:04;;;;;;;;;;;;;;;10.97;100.00;95982.81;4769996;30;20276;-70
2022/04/01 08:17:31;;;;;;;;;;;;;;;11.06;100.00;95991.25;4770403;30;19954;-70
2022/04/01 08:19:58;;;;;;;;;;;;;;;11.16;100.00;95993.66;4770963;30;19960;-70
2022/04/01 08:22:26;;;;;;;;;;;;;;;11.20;100.00;95991.50;4771484;30;19958;-70
2022/04/01 08:24:53;;;;;;;;;;;;;;;11.28;100.00;95994.00;4755473;30;20396;-70
2022/04/01 08:27:21;;;;;;;;;;;;;;;11.27;100.00;95996.06;4771224;30;20369;-70
2022/04/01 08:29:48;;;;;;;;;;;;;;;11.37;100.00;95997.63;4772170;30;19955;-70
2022/04/01 08:32:16;;;;;;;;;;;;;;;11.38;100.00;95992.84;4771877;30;19971;-71
2022/04/01 08:34:44;;;;;;;;;;;;;;;11.38;100.00;95992.84;4771182;30;19961;-70
2022/04/01 08:37:11;;;;;;;;;;;;;;;11.43;100.00;95990.22;4767438;30;19955;-70
2022/04/01 08:39:43;;;;;;;;;;;;;;;11.27;100.00;95998.06;4771999;30;20219;-70
2022/04/01 08:42:11;;;;;;;;;;;;;;;11.38;100.00;96001.22;4771786;30;19957;-70
2022/04/01 08:44:41;;;;;;;;;;;;;;;11.40;100.00;96007.91;4772213;30;19965;-70
2022/04/01 08:47:08;;;;;;;;;;;;;;;11.45;100.00;96009.34;4770466;30;19952;-70
2022/04/01 08:49:36;;;;;;;;;;;;;;;11.53;100.00;96010.63;4771167;30;19960;-73
2022/04/01 08:52:04;;;;;;;;;;;;;;;11.62;100.00;96014.25;4771558;30;19950;-72
2022/04/01 08:54:32;;;;;;;;;;;;;;;11.69;100.00;96014.00;4771453;30;20378;-72
2022/04/01 08:57:00;;;;;;;;;;;;;;;11.79;100.00;96020.41;4776018;30;19960;-73
2022/04/01 08:59:29;;;;;;;;;;;;;;;11.83;100.00;96030.22;4789880;30;19958;-73
2022/04/01 09:02:04;;;;;;;;;;;;;;;11.90;100.00;96025.59;4789603;30;19963;-73
2022/04/01 09:04:32;;;;;;;;;;;;;;;11.96;100.00;96032.91;4772026;30;19984;-73
2022/04/01 09:07:19;;;;;;;;;;;;;;;12.01;100.00;96039.94;4770965;30;19970;-73
2022/04/01 09:09:46;;;;;;;;;;;;;;;12.03;100.00;96037.47;4770904;30;19952;-70
2022/04/01 09:12:17;;;;;;;;;;;;;;;12.00;100.00;96029.97;4771038;30;20352;-71
2022/04/01 09:14:51;;;;;;;;;;;;;;;12.07;100.00;96038.88;4773092;30;19953;-71
2022/04/01 09:17:19;;;;;;;;;;;;;;;12.16;100.00;96032.50;4771390;30;19957;-69
2022/04/01 09:19:47;;;;;;;;;;;;;;;12.28;100.00;96038.00;4769619;30;20297;-71
2022/04/01 09:22:22;;;;;;;;;;;;;;;12.43;100.00;96036.16;4771239;30;19954;-72
2022/04/01 09:24:55;;;;;;;;;;;;;;;12.54;100.00;96044.88;4769345;30;19955;-72
2022/04/01 09:27:41;;;;;;;;;;;;;;;12.64;100.00;96042.88;4770277;30;19992;-72
2022/04/01 09:30:10;;;;;;;;;;;;;;;12.79;100.00;96049.41;4768855;30;19958;-69
2022/04/01 09:32:37;;;;;;;;;;;;;;;12.86;100.00;96045.53;4770320;30;19979;-69
2022/04/01 09:35:06;;;;;;;;;;;;;;;12.78;100.00;96047.88;4770895;30;19955;-70
2022/04/01 09:37:47;;;;;;;;;;;;;;;12.81;100.00;96046.16;4770699;30;19955;-69
2022/04/01 09:40:18;;;;;;;;;;;;;;;12.81;100.00;96048.97;4771053;30;19955;-69
2022/04/01 09:42:50;;;;;;;;;;;;;;;12.76;100.00;96052.41;4770789;30;20255;-72
2022/04/01 09:45:19;;;;;;;;;;;;;;;12.90;100.00;96044.13;4771193;30;19957;-72
2022/04/01 09:47:56;;;;;;;;;;;;;;;13.12;100.00;96041.19;4771216;30;19955;-70
2022/04/01 09:50:26;;;;;;;;;;;;;;;13.44;100.00;96034.13;4773939;30;20254;-70
2022/04/01 09:52:53;;;;;;;;;;;;;;;13.72;100.00;96035.59;4773844;30;19977;-70
2022/04/01 09:55:21;;;;;;;;;;;;;;;14.00;100.00;96042.69;4774003;30;19962;-70
2022/04/01 09:57:50;;;;;;;;;;;;;;;14.27;100.00;96047.38;4757831;30;20240;-70
2022/04/01 10:00:17;;;;;;;;;;;;;;;14.41;100.00;96036.25;4774451;30;19955;-70
2022/04/01 10:02:46;;;;;;;;;;;;;;;14.48;100.00;96039.97;4774259;30;19960;-70
2022/04/01 10:05:13;;;;;;;;;;;;;;;14.41;100.00;96035.47;4774002;30;19963;-70
2022/04/01 10:07:40;;;;;;;;;;;;;;;14.36;100.00;96036.91;4773938;30;19961;-70
2022/04/01 10:10:08;;;;;;;;;;;;;;;14.52;100.00;96032.91;4773566;30;19951;-69
2022/04/01 10:12:41;;;;;;;;;;;;;;;14.44;100.00;96031.69;4774261;30;19959;-68
2022/04/01 10:15:10;;;;;;;;;;;;;;;14.46;100.00;96032.78;4774186;30;19954;-69
2022/04/01 10:17:53;;;;;;;;;;;;;;;14.33;100.00;96040.66;4773108;30;19952;-70
2022/04/01 10:20:21;;;;;;;;;;;;;;;14.36;100.00;96028.47;4771264;30;19954;-70
2022/04/01 10:22:49;;;;;;;;;;;;;;;14.45;100.00;96030.44;4773210;30;20361;-70
2022/04/01 10:25:52;;;;;;;;;;;;;;;14.52;100.00;96032.13;4773641;30;20250;-70
2022/04/01 10:28:20;;;;;;;;;;;;;;;14.62;100.00;96025.19;4753694;30;20357;-70
2022/04/01 10:30:54;;;;;;;;;;;;;;;14.65;100.00;96027.00;4770026;30;20413;-70
2022/04/01 10:33:23;;;;;;;;;;;;;;;14.73;100.00;96031.81;4770037;30;19979;-70
2022/04/01 10:35:50;;;;;;;;;;;;;;;14.84;100.00;96034.84;4773609;30;19958;-70
2022/04/01 10:38:19;;;;;;;;;;;;;;;14.98;100.00;96036.94;4773139;30;19957;-70
2022/04/01 10:40:51;;;;;;;;;;;;;;;14.96;100.00;96025.38;4775157;30;20337;-70
2022/04/01 10:43:20;;;;;;;;;;;;;;;14.93;100.00;96020.72;4771750;30;19952;-70
2022/04/01 10:46:06;;;;;;;;;;;;;;;15.23;100.00;96020.75;4772899;30;19954;-70
2022/04/01 10:51:44;;;;;;;;;;;;;;;15.34;100.00;96023.78;4776460;30;19958;-70
2022/04/01 10:54:16;;;;;;;;;;;;;;;15.33;100.00;96022.25;4791398;30;20002;-70
2022/04/01 10:56:54;;;;;;;;;;;;;;;15.32;100.00;96012.22;4791392;30;19955;-70
2022/04/01 10:59:25;;;;;;;;;;;;;;;15.42;100.00;96014.47;4788236;29;19963;-70
2022/04/01 11:01:52;;;;;;;;;;;;;;;15.41;100.00;96018.53;4773598;30;19961;-70
2022/04/01 11:04:21;;;;;;;;;;;;;;;15.37;100.00;96023.59;4773738;30;19955;-70
2022/04/01 11:06:51;;;;;;;;;;;;;;;15.48;100.00;96021.00;4773524;30;19960;-70
2022/04/01 11:09:34;;;;;;;;;;;;;;;15.58;100.00;96019.63;4772866;30;19961;-70
2022/04/01 11:12:20;;;;;;;;;;;;;;;15.46;100.00;96019.94;4773636;30;19961;-70
2022/04/01 11:14:53;;;;;;;;;;;;;;;15.72;100.00;96016.03;4772934;30;20005;-70
2022/04/01 11:17:22;;;;;;;;;;;;;;;16.00;100.00;96016.50;4773457;30;20259;-70
2022/04/01 11:20:05;;;;;;;;;;;;;;;15.95;100.00;96020.00;4773592;30;19957;-70
2022/04/01 11:22:36;;;;;;;;;;;;;;;15.91;100.00;96025.06;4772873;30;19964;-70
2022/04/01 11:25:03;;;;;;;;;;;;;;;15.91;100.00;96029.91;4773229;30;19966;-70
2022/04/01 11:27:31;;;;;;;;;;;;;;;15.85;100.00;96027.00;4772549;30;20280;-70
2022/04/01 11:30:09;;;;;;;;;;;;;;;15.94;100.00;96020.50;4773258;30;19960;-70
2022/04/01 11:32:38;;;;;;;;;;;;;;;15.98;100.00;96018.25;4773200;30;20270;-70
2022/04/01 11:35:08;;;;;;;;;;;;;;;16.14;100.00;96009.28;4772657;30;20347;-70
2022/04/01 11:37:40;;;;;;;;;;;;;;;16.23;100.00;96012.75;4775627;30;20355;-70
2022/04/01 11:40:10;;;;;;;;;;;;;;;16.24;100.00;96014.28;4772809;30;19958;-70
2022/04/01 11:42:53;;;;;;;;;;;;;;;16.21;100.00;96014.50;4773562;30;19955;-70
2022/04/01 11:45:21;;;;;;;;;;;;;;;16.06;100.00;96017.38;4772763;30;19953;-71
2022/04/01 11:47:48;;;;;;;;;;;;;;;16.27;100.00;96006.91;4776260;30;19982;-70
2022/04/01 11:50:17;;;;;;;;;;;;;;;16.13;100.00;96000.03;4777509;30;20239;-70
2022/04/01 11:52:47;;;;;;;;;;;;;;;16.19;100.00;96000.09;4773414;30;19954;-70
2022/04/01 11:55:16;;;;;;;;;;;;;;;16.29;100.00;96005.13;4772879;30;19984;-70
2022/04/01 11:57:44;;;;;;;;;;;;;;;16.51;100.00;96001.84;4774280;30;19956;-70
2022/04/01 12:00:15;;;;;;;;;;;;;;;16.55;100.00;95996.81;4772742;30;20274;-70
2022/04/01 12:02:44;;;;;;;;;;;;;;;16.62;100.00;95995.63;4774839;30;19967;-70
2022/04/01 12:05:12;;;;;;;;;;;;;;;16.78;100.00;96000.69;4774384;30;19960;-70
2022/04/01 12:10:27;;;;;;;;;;;;;;;16.67;100.00;95997.72;4773773;30;19951;-70
2022/04/01 12:12:59;;;;;;;;;;;;;;;16.52;100.00;95999.84;4774207;30;20076;-70
2022/04/01 12:15:37;;;;;;;;;;;;;;;16.41;100.00;95998.38;4773415;30;20552;-70
2022/04/01 12:18:08;;;;;;;;;;;;;;;16.15;100.00;95994.69;4772018;30;20232;-70
2022/04/01 12:20:52;;;;;;;;;;;;;;;16.13;100.00;95988.75;4772816;30;19961;-70
2022/04/01 12:23:25;;;;;;;;;;;;;;;16.04;100.00;95991.69;4773379;30;19965;-70
2022/04/01 12:25:54;;;;;;;;;;;;;;;15.90;100.00;95995.31;4773565;30;19970;-70
2022/04/01 12:28:26;;;;;;;;;;;;;;;15.82;100.00;95996.97;4766746;30;19970;-70
2022/04/01 12:30:55;;;;;;;;;;;;;;;15.88;100.00;95999.88;4774296;30;20328;-70
2022/04/01 12:33:27;;;;;;;;;;;;;;;15.74;100.00;95996.63;4772596;30;20264;-70
2022/04/01 12:35:56;;;;;;;;;;;;;;;15.87;100.00;96001.16;4773086;30;19985;-70
2022/04/01 12:38:24;;;;;;;;;;;;;;;15.97;100.00;96000.53;4773168;30;19960;-70
2022/04/01 12:40:54;;;;;;;;;;;;;;;15.91;100.00;95996.09;4766927;30;20376;-70
2022/04/01 12:43:39;;;;;;;;;;;;;;;15.96;100.00;95999.00;4767148;30;19957;-70
2022/04/01 12:46:08;;;;;;;;;;;;;;;15.70;100.00;95989.59;4771378;30;19954;-70
2022/04/01 12:48:47;;;;;;;;;;;;;;;15.64;100.00;95983.13;4770861;30;19958;-70
2022/04/01 12:51:35;;;;;;;;;;;;;;;15.58;100.00;95985.06;4770760;30;19986;-70
2022/04/01 12:54:04;;;;;;;;;;;;;;;15.30;100.00;95978.16;4770359;30;20003;-70
2022/04/01 12:56:33;;;;;;;;;;;;;;;15.33;100.00;95977.94;4773741;30;20270;-70
2022/04/01 12:59:06;;;;;;;;;;;;;;;15.27;100.00;95962.22;4770456;30;19962;-70
2022/04/01 13:01:34;;;;;;;;;;;;;;;15.20;100.00;95965.41;4771859;30;19954;-70
2022/04/01 13:04:01;;;;;;;;;;;;;;;15.14;100.00;95965.31;4772008;30;20215;-70
2022/04/01 13:06:29;;;;;;;;;;;;;;;15.09;100.00;95966.78;4771169;30;20356;-70
2022/04/01 13:09:04;;;;;;;;;;;;;;;15.16;100.00;95970.47;4772040;30;20349;-70
2022/04/01 13:11:36;;;;;;;;;;;;;;;15.13;100.00;95973.00;4771334;30;19955;-70
2022/04/01 13:14:19;;;;;;;;;;;;;;;15.13;100.00;95966.59;4771219;30;19953;-70
2022/04/01 13:16:47;;;;;;;;;;;;;;;15.30;100.00;95980.97;4771846;30;19957;-70
2022/04/01 13:19:21;;;;;;;;;;;;;;;15.37;100.00;95975.72;4772591;30;19963;-70
2022/04/01 13:21:49;;;;;;;;;;;;;;;15.52;100.00;95979.34;4772139;30;19969;-70
2022/04/01 13:24:27;;;;;;;;;;;;;;;15.43;100.00;95979.41;4775872;30;19962;-70
2022/04/01 13:26:55;;;;;;;;;;;;;;;15.44;100.00;95974.53;4769469;30;19952;-70
2022/04/01 13:29:22;;;;;;;;;;;;;;;15.54;100.00;95968.38;4769156;30;19983;-70
2022/04/01 13:31:50;;;;;;;;;;;;;;;15.69;100.00;95971.16;4774787;30;19955;-70
2022/04/01 13:34:18;;;;;;;;;;;;;;;16.08;99.77;95966.91;4774691;30;19970;-70
2022/04/01 13:36:46;;;;;;;;;;;;;;;15.99;100.00;95960.63;4775698;30;20345;-70
2022/04/01 13:39:13;;;;;;;;;;;;;;;16.21;90.45;95949.66;4767125;30;19959;-70
2022/04/01 13:41:40;;;;;;;;;;;;;;;16.16;90.36;95950.34;4774663;30;19954;-70
2022/04/01 13:44:08;;;;;;;;;;;;;;;16.01;98.43;95947.59;4775630;30;19952;-70
2022/04/01 13:46:36;;;;;;;;;;;;;;;16.04;87.84;95959.91;4759294;30;20340;-70
2022/04/01 13:49:05;;;;;;;;;;;;;;;15.93;98.50;95946.44;4765412;30;19957;-70
2022/04/01 13:51:36;;;;;;;;;;;;;;;15.90;89.06;95961.50;4775486;30;19983;-70
2022/04/01 13:54:03;;;;;;;;;;;;;;;15.69;91.81;95957.06;4776218;30;19959;-70
2022/04/01 13:56:31;;;;;;;;;;;;;;;15.57;86.43;95952.53;4772227;30;19963;-70
2022/04/01 13:58:58;;;;;;;;;;;;;;;15.60;95.79;95952.31;4765486;30;19954;-70
2022/04/01 14:01:25;;;;;;;;;;;;;;;15.58;91.44;95945.63;4769568;30;19954;-70
2022/04/01 14:03:53;;;;;;;;;;;;;;;15.47;94.10;95948.25;4785653;30;19958;-70
2022/04/01 14:06:23;;;;;;;;;;;;;;;15.40;87.47;95940.97;4776654;30;19952;-70
2022/04/01 14:08:53;;;;;;;;;;;;;;;15.22;89.32;95941.16;4776072;30;19952;-70
2022/04/01 14:11:21;;;;;;;;;;;;;;;15.16;84.93;95947.97;4775646;30;19957;-70
2022/04/01 14:13:48;;;;;;;;;;;;;;;15.30;87.68;95950.00;4774663;30;19954;-70
2022/04/01 14:16:18;;;;;;;;;;;;;;;15.46;86.31;95946.69;4774638;30;19976;-70
2022/04/01 14:18:48;;;;;;;;;;;;;;;15.56;80.84;95945.34;4774910;30;19953;-70
2022/04/01 14:21:21;;;;;;;;;;;;;;;15.41;81.37;95950.94;4773372;30;19964;-70
2022/04/01 14:23:48;;;;;;;;;;;;;;;15.20;83.14;95940.88;4774080;30;19957;-70
2022/04/01 14:26:15;;;;;;;;;;;;;;;15.25;84.37;95933.78;4773812;30;19952;-70
2022/04/01 14:28:43;;;;;;;;;;;;;;;15.14;74.45;95956.88;4774647;30;19979;-70
2022/04/01 14:31:10;;;;;;;;;;;;;;;15.07;74.51;95958.03;4759911;30;19979;-70
2022/04/01 14:33:38;;;;;;;;;;;;;;;14.88;76.74;95953.06;4774078;30;20382;-70
2022/04/01 14:36:05;;;;;;;;;;;;;;;14.78;78.03;95955.19;4775107;30;19965;-70
2022/04/01 14:38:32;;;;;;;;;;;;;;;14.66;80.35;95949.81;4774435;30;19953;-70
2022/04/01 14:41:08;;;;;;;;;;;;;;;14.44;78.05;95961.41;4774752;30;19970;-69
2022/04/01 14:43:36;;;;;;;;;;;;;;;14.30;78.46;95956.47;4775077;30;19959;-69
2022/04/01 14:46:07;;;;;;;;;;;;;;;14.17;75.93;95956.72;4773365;30;20243;-69
2022/04/01 14:48:34;;;;;;;;;;;;;;;14.17;73.50;95953.13;4784778;30;19958;-69
2022/04/01 14:51:02;;;;;;;;;;;;;;;14.05;78.31;95962.56;4773425;30;20362;-69
2022/04/01 14:53:30;;;;;;;;;;;;;;;13.89;80.89;95962.97;4773306;30;19960;-70
2022/04/01 14:55:57;;;;;;;;;;;;;;;13.89;80.58;95960.16;4773159;30;19968;-69
2022/04/01 14:58:25;;;;;;;;;;;;;;;13.73;78.48;95959.31;4772923;30;19953;-69
2022/04/01 15:00:52;;;;;;;;;;;;;;;13.64;80.54;95973.41;4774536;30;19953;-72
2022/04/01 15:03:19;;;;;;;;;;;;;;;13.51;85.26;95978.44;4774688;30;19962;-70
2022/04/01 15:05:47;;;;;;;;;;;;;;;13.50;84.78;95978.88;4747877;30;19949;-69
2022/04/01 15:08:14;;;;;;;;;;;;;;;13.47;84.56;95974.22;4777864;30;19956;-70
2022/04/01 15:10:41;;;;;;;;;;;;;;;13.33;85.75;95967.25;4774205;30;19960;-70
2022/04/01 15:13:09;;;;;;;;;;;;;;;13.13;82.74;95972.63;4774199;30;19960;-72
2022/04/01 15:15:37;;;;;;;;;;;;;;;12.98;85.21;95971.66;4772764;30;19969;-72
2022/04/01 15:18:04;;;;;;;;;;;;;;;12.94;85.00;95973.84;4773104;30;19960;-72
2022/04/01 15:20:33;;;;;;;;;;;;;;;12.93;81.63;95973.09;4774360;30;19958;-72
2022/04/01 15:23:00;;;;;;;;;;;;;;;12.91;81.97;95966.38;4773772;30;19961;-72
2022/04/01 15:25:28;;;;;;;;;;;;;;;12.76;83.07;95965.47;4773904;30;19956;-72
2022/04/01 15:27:55;;;;;;;;;;;;;;;12.83;82.14;95968.72;4764572;30;19983;-72
2022/04/01 15:30:27;;;;;;;;;;;;;;;12.85;81.42;95973.84;4773791;30;19978;-72
2022/04/01 15:32:55;;;;;;;;;;;;;;;12.82;80.21;95974.78;4773802;30;20252;-72
2022/04/01 15:35:23;;;;;;;;;;;;;;;12.73;81.77;95969.19;4772633;30;19973;-72
2022/04/01 15:38:00;;;;;;;;;;;;;;;12.74;83.86;95970.75;4773802;30;19961;-72
2022/04/01 15:40:31;;;;;;;;;;;;;;;12.62;83.86;95966.84;4772744;30;20370;-72
2022/04/01 15:42:59;;;;;;;;;;;;;;;12.67;78.17;95979.47;4772283;30;19951;-72
2022/04/01 15:45:28;;;;;;;;;;;;;;;12.70;78.67;95975.72;4772994;30;19962;-72
2022/04/01 15:47:56;;;;;;;;;;;;;;;12.66;74.17;95972.31;4773082;30;19960;-72
2022/04/01 15:50:24;;;;;;;;;;;;;;;12.51;72.89;95978.56;4773771;30;19956;-72
2022/04/01 15:52:53;;;;;;;;;;;;;;;12.52;73.70;95971.69;4762806;30;19949;-72
2022/04/01 15:55:21;;;;;;;;;;;;;;;12.46;78.05;95970.75;4773438;30;19969;-72
2022/04/01 15:57:49;;;;;;;;;;;;;;;12.44;76.06;95972.47;4773480;30;19961;-72
2022/04/01 16:00:18;;;;;;;;;;;;;;;12.45;77.23;95977.59;4770107;30;19954;-72
2022/04/01 16:02:54;;;;;;;;;;;;;;;12.42;73.91;95972.94;4773541;30;19983;-72
2022/04/01 16:05:24;;;;;;;;;;;;;;;12.43;81.91;95968.88;4773372;30;19954;-72
2022/04/01 16:07:52;;;;;;;;;;;;;;;12.43;81.43;95971.69;4773245;30;19955;-72
2022/04/01 16:10:22;;;;;;;;;;;;;;;12.41;78.51;95965.00;4773079;30;19961;-72
2022/04/01 16:12:51;;;;;;;;;;;;;;;12.39;79.39;95967.50;4773842;30;19952;-72
2022/04/01 16:15:20;;;;;;;;;;;;;;;12.31;80.89;95969.03;4773769;30;20037;-72
2022/04/01 16:17:47;;;;;;;;;;;;;;;12.13;80.32;95978.19;4771495;30;19953;-72
2022/04/01 16:20:15;;;;;;;;;;;;;;;12.04;81.98;95972.56;4772250;30;19959;-72
2022/04/01 16:22:42;;;;;;;;;;;;;;;11.87;84.70;95968.47;4771652;30;19954;-72
2022/04/01 16:25:10;;;;;;;;;;;;;;;11.94;77.30;95961.81;4771422;30;19959;-72
2022/04/01 16:27:37;;;;;;;;;;;;;;;11.77;80.88;95980.91;4767495;30;20266;-72
2022/04/01 16:30:04;;;;;;;;;;;;;;;11.64;85.49;95966.97;4762070;30;19966;-72
2022/04/01 16:32:33;;;;;;;;;;;;;;;11.57;84.95;95967.25;4765377;30;19958;-72
2022/04/01 16:35:01;;;;;;;;;;;;;;;11.55;88.41;95966.94;4771489;30;19960;-72
2022/04/01 16:37:29;;;;;;;;;;;;;;;11.56;86.85;95971.31;4769537;30;20398;-72
2022/04/01 16:39:56;;;;;;;;;;;;;;;11.60;88.63;95980.34;4763554;30;19960;-72
2022/04/01 16:42:23;;;;;;;;;;;;;;;11.61;87.05;95984.72;4769807;30;19958;-72
2022/04/01 16:44:51;;;;;;;;;;;;;;;11.59;90.85;95983.63;4770594;30;19957;-72
2022/04/01 16:47:18;;;;;;;;;;;;;;;11.56;87.21;95976.91;4774668;30;20459;-72
2022/04/01 16:49:48;;;;;;;;;;;;;;;11.55;89.17;95988.56;4770912;30;19957;-72
2022/04/01 16:52:15;;;;;;;;;;;;;;;11.56;90.37;95992.94;4770408;30;19967;-72
2022/04/01 16:54:43;;;;;;;;;;;;;;;11.54;86.03;96012.19;4771026;30;19957;-72
2022/04/01 16:57:10;;;;;;;;;;;;;;;11.46;84.83;96010.91;4770506;30;19969;-72
2022/04/01 16:59:40;;;;;;;;;;;;;;;11.37;87.82;96025.63;4772086;30;20373;-72
2022/04/01 17:02:08;;;;;;;;;;;;;;;11.39;90.03;96014.78;4770920;30;19951;-72
2022/04/01 17:04:36;;;;;;;;;;;;;;;11.36;88.22;96017.69;4771877;30;20304;-72
2022/04/01 17:12:41;;;;;;;;;;;;;;;11.09;91.83;96010.72;4735842;30;19954;-72
2022/04/01 17:15:11;;;;;;;;;;;;;;;11.06;91.61;96014.41;4773874;30;19958;-72
2022/04/01 17:17:48;;;;;;;;;;;;;;;10.99;96.28;96008.31;4772002;30;19971;-72
2022/04/01 17:20:20;;;;;;;;;;;;;;;11.02;96.95;96010.97;4775791;30;19988;-72
2022/04/01 17:22:48;;;;;;;;;;;;;;;10.87;85.89;96009.94;4771062;30;19960;-72
2022/04/01 17:25:16;;;;;;;;;;;;;;;10.71;92.45;96007.31;4769228;30;20214;-72
2022/04/01 17:27:45;;;;;;;;;;;;;;;10.56;97.70;96001.44;4772171;30;19974;-72
2022/04/01 17:30:14;;;;;;;;;;;;;;;10.42;98.19;96004.75;4771777;30;19953;-72
2022/04/01 17:32:43;;;;;;;;;;;;;;;10.28;93.98;96001.69;4769621;30;19963;-72
2022/04/01 17:35:15;;;;;;;;;;;;;;;10.33;91.41;95996.31;4767944;30;19961;-72
2022/04/01 17:37:44;;;;;;;;;;;;;;;10.19;95.98;96004.38;4766531;30;20388;-72
2022/04/01 17:40:18;;;;;;;;;;;;;;;10.18;86.28;96011.97;4770471;30;19956;-72
2022/04/01 17:42:47;;;;;;;;;;;;;;;9.94;87.82;96030.31;4772245;30;20252;-72